sensor_id;sensor_type;location;lat;lon;timestamp;P1;durP1;ratioP1;P2;durP2;ratioP2
12469;SDS011;36499;46.484;13.832;2023-03-01T00:01:09;8.63;;;5.80;;
12469;SDS011;36499;46.484;13.832;2023-03-01T00:03:39;9.67;;;5.90;;
12469;SDS011;36499;46.484;13.832;2023-03-01T00:06:06;9.20;;;5.70;;
12469;SDS011;36499;46.484;13.832;2023-03-01T00:08:33;9.33;;;5.80;;
12469;SDS011;36499;46.484;13.832;2023-03-01T00:11:04;10.03;;;5.97;;
12469;SDS011;36499;46.484;13.832;2023-03-01T00:13:34;9.63;;;5.80;;
12469;SDS011;36499;46.484;13.832;2023-03-01T00:16:02;8.83;;;6.90;;
12469;SDS011;36499;46.484;13.832;2023-03-01T00:18:31;9.70;;;6.80;;
12469;SDS011;36499;46.484;13.832;2023-03-01T00:20:58;12.37;;;6.73;;
12469;SDS011;36499;46.484;13.832;2023-03-01T00:23:26;10.53;;;6.70;;
12469;SDS011;36499;46.484;13.832;2023-03-01T00:25:53;10.53;;;6.70;;
12469;SDS011;36499;46.484;13.832;2023-03-01T00:28:22;10.77;;;7.17;;
12469;SDS011;36499;46.484;13.832;2023-03-01T00:30:49;12.90;;;7.47;;
12469;SDS011;36499;46.484;13.832;2023-03-01T00:33:16;10.50;;;7.40;;
12469;SDS011;36499;46.484;13.832;2023-03-01T00:35:44;10.40;;;6.77;;
12469;SDS011;36499;46.484;13.832;2023-03-01T00:38:11;12.73;;;8.20;;
12469;SDS011;36499;46.484;13.832;2023-03-01T00:40:38;13.30;;;8.23;;
12469;SDS011;36499;46.484;13.832;2023-03-01T00:43:05;15.17;;;8.47;;
12469;SDS011;36499;46.484;13.832;2023-03-01T00:45:33;14.27;;;8.77;;
12469;SDS011;36499;46.484;13.832;2023-03-01T00:48:00;13.37;;;8.13;;
12469;SDS011;36499;46.484;13.832;2023-03-01T00:50:27;14.60;;;8.47;;
12469;SDS011;36499;46.484;13.832;2023-03-01T00:52:55;12.73;;;8.30;;
12469;SDS011;36499;46.484;13.832;2023-03-01T00:55:22;13.43;;;8.30;;
12469;SDS011;36499;46.484;13.832;2023-03-01T00:57:50;15.03;;;8.40;;
12469;SDS011;36499;46.484;13.832;2023-03-01T01:00:18;14.43;;;8.33;;
12469;SDS011;36499;46.484;13.832;2023-03-01T01:02:47;13.40;;;8.10;;
12469;SDS011;36499;46.484;13.832;2023-03-01T01:05:14;12.60;;;7.87;;
12469;SDS011;36499;46.484;13.832;2023-03-01T01:07:46;12.93;;;8.40;;
12469;SDS011;36499;46.484;13.832;2023-03-01T01:10:13;10.93;;;7.53;;
12469;SDS011;36499;46.484;13.832;2023-03-01T01:12:41;13.63;;;8.27;;
12469;SDS011;36499;46.484;13.832;2023-03-01T01:15:10;13.33;;;8.33;;
12469;SDS011;36499;46.484;13.832;2023-03-01T01:17:39;16.03;;;8.77;;
12469;SDS011;36499;46.484;13.832;2023-03-01T01:20:08;13.00;;;8.43;;
12469;SDS011;36499;46.484;13.832;2023-03-01T01:22:37;13.50;;;7.90;;
12469;SDS011;36499;46.484;13.832;2023-03-01T01:25:04;15.77;;;8.30;;
12469;SDS011;36499;46.484;13.832;2023-03-01T01:27:32;13.10;;;8.23;;
12469;SDS011;36499;46.484;13.832;2023-03-01T01:29:59;15.97;;;8.57;;
12469;SDS011;36499;46.484;13.832;2023-03-01T01:32:26;13.97;;;8.70;;
12469;SDS011;36499;46.484;13.832;2023-03-01T01:34:53;16.40;;;9.13;;
12469;SDS011;36499;46.484;13.832;2023-03-01T01:37:21;14.03;;;9.00;;
12469;SDS011;36499;46.484;13.832;2023-03-01T01:39:56;15.90;;;8.33;;
12469;SDS011;36499;46.484;13.832;2023-03-01T01:42:23;15.77;;;8.53;;
12469;SDS011;36499;46.484;13.832;2023-03-01T01:47:54;14.37;;;9.03;;
12469;SDS011;36499;46.484;13.832;2023-03-01T01:50:25;13.97;;;8.90;;
12469;SDS011;36499;46.484;13.832;2023-03-01T01:53:06;13.83;;;8.83;;
12469;SDS011;36499;46.484;13.832;2023-03-01T01:55:38;13.03;;;8.27;;
12469;SDS011;36499;46.484;13.832;2023-03-01T01:58:14;13.40;;;8.43;;
12469;SDS011;36499;46.484;13.832;2023-03-01T02:00:45;13.97;;;9.27;;
12469;SDS011;36499;46.484;13.832;2023-03-01T02:03:14;12.97;;;8.70;;
12469;SDS011;36499;46.484;13.832;2023-03-01T02:05:47;15.73;;;8.77;;
12469;SDS011;36499;46.484;13.832;2023-03-01T02:08:24;13.83;;;8.83;;
12469;SDS011;36499;46.484;13.832;2023-03-01T02:10:56;13.90;;;8.80;;
12469;SDS011;36499;46.484;13.832;2023-03-01T02:13:29;16.07;;;10.13;;
12469;SDS011;36499;46.484;13.832;2023-03-01T02:15:58;15.83;;;8.50;;
12469;SDS011;36499;46.484;13.832;2023-03-01T02:18:25;13.67;;;9.10;;
12469;SDS011;36499;46.484;13.832;2023-03-01T02:20:57;14.30;;;8.70;;
12469;SDS011;36499;46.484;13.832;2023-03-01T02:23:39;14.47;;;9.07;;
12469;SDS011;36499;46.484;13.832;2023-03-01T02:26:09;14.87;;;9.57;;
12469;SDS011;36499;46.484;13.832;2023-03-01T02:28:48;14.73;;;8.77;;
12469;SDS011;36499;46.484;13.832;2023-03-01T02:31:17;14.73;;;9.13;;
12469;SDS011;36499;46.484;13.832;2023-03-01T02:34:05;15.83;;;8.90;;
12469;SDS011;36499;46.484;13.832;2023-03-01T02:36:35;16.47;;;9.00;;
12469;SDS011;36499;46.484;13.832;2023-03-01T02:39:06;14.17;;;9.83;;
12469;SDS011;36499;46.484;13.832;2023-03-01T02:41:44;14.77;;;9.00;;
12469;SDS011;36499;46.484;13.832;2023-03-01T02:44:17;15.23;;;9.53;;
12469;SDS011;36499;46.484;13.832;2023-03-01T02:46:46;21.80;;;10.27;;
12469;SDS011;36499;46.484;13.832;2023-03-01T02:49:21;19.57;;;10.97;;
12469;SDS011;36499;46.484;13.832;2023-03-01T02:54:50;15.03;;;9.53;;
12469;SDS011;36499;46.484;13.832;2023-03-01T02:57:25;18.97;;;10.60;;
12469;SDS011;36499;46.484;13.832;2023-03-01T02:59:56;20.10;;;10.00;;
12469;SDS011;36499;46.484;13.832;2023-03-01T03:02:31;14.03;;;9.73;;
12469;SDS011;36499;46.484;13.832;2023-03-01T03:05:04;14.40;;;9.77;;
12469;SDS011;36499;46.484;13.832;2023-03-01T03:07:35;16.80;;;8.97;;
12469;SDS011;36499;46.484;13.832;2023-03-01T03:10:06;24.63;;;12.07;;
12469;SDS011;36499;46.484;13.832;2023-03-01T03:12:37;13.63;;;9.20;;
12469;SDS011;36499;46.484;13.832;2023-03-01T03:15:07;15.80;;;9.20;;
12469;SDS011;36499;46.484;13.832;2023-03-01T03:17:37;19.00;;;9.70;;
12469;SDS011;36499;46.484;13.832;2023-03-01T03:20:07;13.10;;;9.10;;
12469;SDS011;36499;46.484;13.832;2023-03-01T03:22:44;14.73;;;9.47;;
12469;SDS011;36499;46.484;13.832;2023-03-01T03:25:12;16.17;;;10.40;;
12469;SDS011;36499;46.484;13.832;2023-03-01T03:27:40;18.00;;;9.50;;
12469;SDS011;36499;46.484;13.832;2023-03-01T03:30:11;14.47;;;9.10;;
12469;SDS011;36499;46.484;13.832;2023-03-01T03:32:42;18.83;;;9.57;;
12469;SDS011;36499;46.484;13.832;2023-03-01T03:35:17;16.13;;;9.63;;
12469;SDS011;36499;46.484;13.832;2023-03-01T03:37:46;14.40;;;9.67;;
12469;SDS011;36499;46.484;13.832;2023-03-01T03:40:28;14.47;;;9.73;;
12469;SDS011;36499;46.484;13.832;2023-03-01T03:42:58;12.77;;;9.17;;
12469;SDS011;36499;46.484;13.832;2023-03-01T03:45:26;15.20;;;9.77;;
12469;SDS011;36499;46.484;13.832;2023-03-01T03:47:53;21.70;;;10.70;;
12469;SDS011;36499;46.484;13.832;2023-03-01T03:50:20;15.70;;;10.20;;
12469;SDS011;36499;46.484;13.832;2023-03-01T03:52:47;23.10;;;10.33;;
12469;SDS011;36499;46.484;13.832;2023-03-01T03:55:15;22.60;;;10.77;;
12469;SDS011;36499;46.484;13.832;2023-03-01T03:57:44;15.00;;;9.77;;
12469;SDS011;36499;46.484;13.832;2023-03-01T04:00:17;18.67;;;9.77;;
12469;SDS011;36499;46.484;13.832;2023-03-01T04:02:47;14.90;;;9.23;;
12469;SDS011;36499;46.484;13.832;2023-03-01T04:05:15;14.70;;;9.27;;
12469;SDS011;36499;46.484;13.832;2023-03-01T04:07:44;22.77;;;11.77;;
12469;SDS011;36499;46.484;13.832;2023-03-01T04:10:13;18.03;;;10.37;;
12469;SDS011;36499;46.484;13.832;2023-03-01T04:12:43;16.67;;;9.87;;
12469;SDS011;36499;46.484;13.832;2023-03-01T04:15:11;19.10;;;9.97;;
12469;SDS011;36499;46.484;13.832;2023-03-01T04:17:42;14.63;;;10.13;;
12469;SDS011;36499;46.484;13.832;2023-03-01T04:20:13;15.90;;;9.70;;
12469;SDS011;36499;46.484;13.832;2023-03-01T04:22:49;14.87;;;9.97;;
12469;SDS011;36499;46.484;13.832;2023-03-01T04:25:18;15.10;;;9.47;;
12469;SDS011;36499;46.484;13.832;2023-03-01T04:27:45;17.40;;;9.90;;
12469;SDS011;36499;46.484;13.832;2023-03-01T04:30:13;18.10;;;10.87;;
12469;SDS011;36499;46.484;13.832;2023-03-01T04:32:41;14.43;;;10.60;;
12469;SDS011;36499;46.484;13.832;2023-03-01T04:35:08;17.27;;;10.10;;
12469;SDS011;36499;46.484;13.832;2023-03-01T04:37:37;18.00;;;10.43;;
12469;SDS011;36499;46.484;13.832;2023-03-01T04:40:04;19.17;;;10.37;;
12469;SDS011;36499;46.484;13.832;2023-03-01T04:42:38;17.33;;;10.37;;
12469;SDS011;36499;46.484;13.832;2023-03-01T04:45:06;18.03;;;10.53;;
12469;SDS011;36499;46.484;13.832;2023-03-01T04:47:38;16.07;;;9.60;;
12469;SDS011;36499;46.484;13.832;2023-03-01T04:50:08;15.07;;;9.57;;
12469;SDS011;36499;46.484;13.832;2023-03-01T04:52:38;18.33;;;10.57;;
12469;SDS011;36499;46.484;13.832;2023-03-01T04:55:06;19.47;;;10.60;;
12469;SDS011;36499;46.484;13.832;2023-03-01T04:57:35;22.80;;;10.50;;
12469;SDS011;36499;46.484;13.832;2023-03-01T05:00:02;17.60;;;10.77;;
12469;SDS011;36499;46.484;13.832;2023-03-01T05:02:44;19.87;;;10.60;;
12469;SDS011;36499;46.484;13.832;2023-03-01T05:05:18;16.87;;;10.23;;
12469;SDS011;36499;46.484;13.832;2023-03-01T05:07:52;16.27;;;9.87;;
12469;SDS011;36499;46.484;13.832;2023-03-01T05:10:24;18.40;;;10.30;;
12469;SDS011;36499;46.484;13.832;2023-03-01T05:12:54;15.60;;;10.33;;
12469;SDS011;36499;46.484;13.832;2023-03-01T05:15:22;17.50;;;9.97;;
12469;SDS011;36499;46.484;13.832;2023-03-01T05:17:50;15.87;;;9.97;;
12469;SDS011;36499;46.484;13.832;2023-03-01T05:20:17;14.53;;;9.77;;
12469;SDS011;36499;46.484;13.832;2023-03-01T05:22:47;16.67;;;10.63;;
12469;SDS011;36499;46.484;13.832;2023-03-01T05:25:16;15.57;;;10.37;;
12469;SDS011;36499;46.484;13.832;2023-03-01T05:27:44;20.73;;;10.67;;
12469;SDS011;36499;46.484;13.832;2023-03-01T05:30:11;17.10;;;11.27;;
12469;SDS011;36499;46.484;13.832;2023-03-01T05:32:40;14.53;;;9.93;;
12469;SDS011;36499;46.484;13.832;2023-03-01T05:35:09;17.47;;;11.03;;
12469;SDS011;36499;46.484;13.832;2023-03-01T05:37:40;15.57;;;10.70;;
12469;SDS011;36499;46.484;13.832;2023-03-01T05:40:09;15.87;;;10.50;;
12469;SDS011;36499;46.484;13.832;2023-03-01T05:42:42;16.57;;;10.37;;
12469;SDS011;36499;46.484;13.832;2023-03-01T05:45:10;18.13;;;11.80;;
12469;SDS011;36499;46.484;13.832;2023-03-01T05:47:39;17.93;;;11.67;;
12469;SDS011;36499;46.484;13.832;2023-03-01T05:50:10;17.93;;;11.67;;
12469;SDS011;36499;46.484;13.832;2023-03-01T05:52:44;21.13;;;11.27;;
12469;SDS011;36499;46.484;13.832;2023-03-01T05:55:13;17.17;;;11.63;;
12469;SDS011;36499;46.484;13.832;2023-03-01T05:57:45;17.43;;;11.03;;
12469;SDS011;36499;46.484;13.832;2023-03-01T06:00:14;23.10;;;11.43;;
12469;SDS011;36499;46.484;13.832;2023-03-01T06:02:44;19.37;;;11.43;;
12469;SDS011;36499;46.484;13.832;2023-03-01T06:05:12;20.90;;;13.13;;
12469;SDS011;36499;46.484;13.832;2023-03-01T06:07:40;22.27;;;12.80;;
12469;SDS011;36499;46.484;13.832;2023-03-01T06:10:08;23.30;;;13.23;;
12469;SDS011;36499;46.484;13.832;2023-03-01T06:12:38;21.13;;;13.77;;
12469;SDS011;36499;46.484;13.832;2023-03-01T06:15:09;23.37;;;14.63;;
12469;SDS011;36499;46.484;13.832;2023-03-01T06:17:38;20.90;;;13.53;;
12469;SDS011;36499;46.484;13.832;2023-03-01T06:20:08;21.10;;;12.43;;
12469;SDS011;36499;46.484;13.832;2023-03-01T06:22:39;21.87;;;15.00;;
12469;SDS011;36499;46.484;13.832;2023-03-01T06:25:07;22.23;;;14.83;;
12469;SDS011;36499;46.484;13.832;2023-03-01T06:27:35;31.80;;;20.87;;
12469;SDS011;36499;46.484;13.832;2023-03-01T06:30:03;33.40;;;22.43;;
12469;SDS011;36499;46.484;13.832;2023-03-01T06:32:33;28.33;;;19.17;;
12469;SDS011;36499;46.484;13.832;2023-03-01T06:35:00;46.80;;;28.07;;
12469;SDS011;36499;46.484;13.832;2023-03-01T06:37:27;34.13;;;22.37;;
12469;SDS011;36499;46.484;13.832;2023-03-01T06:39:54;22.97;;;13.73;;
12469;SDS011;36499;46.484;13.832;2023-03-01T06:42:21;28.47;;;18.27;;
12469;SDS011;36499;46.484;13.832;2023-03-01T06:44:48;25.20;;;16.73;;
12469;SDS011;36499;46.484;13.832;2023-03-01T06:47:15;21.27;;;13.70;;
12469;SDS011;36499;46.484;13.832;2023-03-01T06:49:44;23.50;;;13.70;;
12469;SDS011;36499;46.484;13.832;2023-03-01T06:52:11;19.63;;;13.00;;
12469;SDS011;36499;46.484;13.832;2023-03-01T06:54:38;19.77;;;13.50;;
12469;SDS011;36499;46.484;13.832;2023-03-01T06:57:05;21.07;;;13.17;;
12469;SDS011;36499;46.484;13.832;2023-03-01T06:59:32;20.63;;;13.43;;
12469;SDS011;36499;46.484;13.832;2023-03-01T07:01:59;21.33;;;14.33;;
12469;SDS011;36499;46.484;13.832;2023-03-01T07:04:26;22.23;;;14.83;;
12469;SDS011;36499;46.484;13.832;2023-03-01T07:06:56;20.70;;;13.27;;
12469;SDS011;36499;46.484;13.832;2023-03-01T07:09:24;21.53;;;13.20;;
12469;SDS011;36499;46.484;13.832;2023-03-01T07:11:52;24.30;;;13.53;;
12469;SDS011;36499;46.484;13.832;2023-03-01T07:14:19;21.40;;;13.00;;
12469;SDS011;36499;46.484;13.832;2023-03-01T07:16:46;18.50;;;12.33;;
12469;SDS011;36499;46.484;13.832;2023-03-01T07:19:13;19.70;;;12.83;;
12469;SDS011;36499;46.484;13.832;2023-03-01T07:21:40;22.53;;;12.43;;
12469;SDS011;36499;46.484;13.832;2023-03-01T07:24:08;18.27;;;12.47;;
12469;SDS011;36499;46.484;13.832;2023-03-01T07:26:36;19.20;;;11.67;;
12469;SDS011;36499;46.484;13.832;2023-03-01T07:29:04;18.23;;;12.10;;
12469;SDS011;36499;46.484;13.832;2023-03-01T07:31:33;20.03;;;13.13;;
12469;SDS011;36499;46.484;13.832;2023-03-01T07:34:01;20.90;;;12.77;;
12469;SDS011;36499;46.484;13.832;2023-03-01T07:36:29;19.63;;;12.40;;
12469;SDS011;36499;46.484;13.832;2023-03-01T07:38:56;17.30;;;12.00;;
12469;SDS011;36499;46.484;13.832;2023-03-01T07:41:24;19.30;;;11.80;;
12469;SDS011;36499;46.484;13.832;2023-03-01T07:43:51;20.67;;;12.87;;
12469;SDS011;36499;46.484;13.832;2023-03-01T07:46:18;24.27;;;13.37;;
12469;SDS011;36499;46.484;13.832;2023-03-01T07:48:46;21.50;;;13.30;;
12469;SDS011;36499;46.484;13.832;2023-03-01T07:51:13;22.13;;;13.70;;
12469;SDS011;36499;46.484;13.832;2023-03-01T07:53:40;19.73;;;12.77;;
12469;SDS011;36499;46.484;13.832;2023-03-01T07:56:09;17.60;;;11.77;;
12469;SDS011;36499;46.484;13.832;2023-03-01T07:58:40;17.90;;;12.37;;
12469;SDS011;36499;46.484;13.832;2023-03-01T08:01:10;21.47;;;12.73;;
12469;SDS011;36499;46.484;13.832;2023-03-01T08:03:39;21.57;;;12.93;;
12469;SDS011;36499;46.484;13.832;2023-03-01T08:06:07;19.17;;;12.13;;
12469;SDS011;36499;46.484;13.832;2023-03-01T08:08:36;17.63;;;12.73;;
12469;SDS011;36499;46.484;13.832;2023-03-01T08:11:04;23.00;;;12.20;;
12469;SDS011;36499;46.484;13.832;2023-03-01T08:13:34;19.70;;;12.47;;
12469;SDS011;36499;46.484;13.832;2023-03-01T08:16:03;18.60;;;11.57;;
12469;SDS011;36499;46.484;13.832;2023-03-01T08:18:32;19.20;;;12.63;;
12469;SDS011;36499;46.484;13.832;2023-03-01T08:21:03;18.40;;;11.70;;
12469;SDS011;36499;46.484;13.832;2023-03-01T08:23:30;18.97;;;12.63;;
12469;SDS011;36499;46.484;13.832;2023-03-01T08:26:07;19.93;;;11.97;;
12469;SDS011;36499;46.484;13.832;2023-03-01T08:28:39;16.43;;;11.57;;
12469;SDS011;36499;46.484;13.832;2023-03-01T08:31:15;17.83;;;11.97;;
12469;SDS011;36499;46.484;13.832;2023-03-01T08:33:46;18.93;;;11.50;;
12469;SDS011;36499;46.484;13.832;2023-03-01T08:36:20;17.60;;;10.90;;
12469;SDS011;36499;46.484;13.832;2023-03-01T08:38:47;16.20;;;11.43;;
12469;SDS011;36499;46.484;13.832;2023-03-01T08:41:14;15.40;;;10.47;;
12469;SDS011;36499;46.484;13.832;2023-03-01T08:43:41;16.20;;;10.27;;
12469;SDS011;36499;46.484;13.832;2023-03-01T08:46:09;15.30;;;10.50;;
12469;SDS011;36499;46.484;13.832;2023-03-01T08:48:38;14.13;;;10.17;;
12469;SDS011;36499;46.484;13.832;2023-03-01T08:51:08;18.37;;;9.83;;
12469;SDS011;36499;46.484;13.832;2023-03-01T08:53:37;17.67;;;11.17;;
12469;SDS011;36499;46.484;13.832;2023-03-01T08:56:05;15.57;;;11.07;;
12469;SDS011;36499;46.484;13.832;2023-03-01T08:58:33;14.73;;;10.30;;
12469;SDS011;36499;46.484;13.832;2023-03-01T09:01:06;25.43;;;14.50;;
12469;SDS011;36499;46.484;13.832;2023-03-01T09:03:34;17.60;;;11.23;;
12469;SDS011;36499;46.484;13.832;2023-03-01T09:06:04;18.20;;;11.57;;
12469;SDS011;36499;46.484;13.832;2023-03-01T09:08:34;17.20;;;10.67;;
12469;SDS011;36499;46.484;13.832;2023-03-01T09:11:02;15.20;;;10.50;;
12469;SDS011;36499;46.484;13.832;2023-03-01T09:13:30;15.83;;;11.53;;
12469;SDS011;36499;46.484;13.832;2023-03-01T09:15:58;15.77;;;10.60;;
12469;SDS011;36499;46.484;13.832;2023-03-01T09:18:27;16.93;;;11.10;;
12469;SDS011;36499;46.484;13.832;2023-03-01T09:21:00;17.30;;;9.30;;
12469;SDS011;36499;46.484;13.832;2023-03-01T09:23:33;14.00;;;9.33;;
12469;SDS011;36499;46.484;13.832;2023-03-01T09:26:03;17.57;;;10.43;;
12469;SDS011;36499;46.484;13.832;2023-03-01T09:28:31;15.07;;;9.90;;
12469;SDS011;36499;46.484;13.832;2023-03-01T09:30:58;15.90;;;10.30;;
12469;SDS011;36499;46.484;13.832;2023-03-01T09:33:26;15.47;;;10.83;;
12469;SDS011;36499;46.484;13.832;2023-03-01T09:35:57;14.83;;;10.17;;
12469;SDS011;36499;46.484;13.832;2023-03-01T09:38:24;12.73;;;9.50;;
12469;SDS011;36499;46.484;13.832;2023-03-01T09:40:53;18.23;;;11.10;;
12469;SDS011;36499;46.484;13.832;2023-03-01T09:43:23;16.30;;;10.60;;
12469;SDS011;36499;46.484;13.832;2023-03-01T09:45:58;15.60;;;10.47;;
12469;SDS011;36499;46.484;13.832;2023-03-01T09:48:32;14.53;;;9.97;;
12469;SDS011;36499;46.484;13.832;2023-03-01T09:51:09;17.23;;;10.40;;
12469;SDS011;36499;46.484;13.832;2023-03-01T09:53:44;16.67;;;10.00;;
12469;SDS011;36499;46.484;13.832;2023-03-01T09:56:15;16.40;;;10.77;;
12469;SDS011;36499;46.484;13.832;2023-03-01T09:58:50;15.07;;;10.80;;
12469;SDS011;36499;46.484;13.832;2023-03-01T10:01:32;15.57;;;10.00;;
12469;SDS011;36499;46.484;13.832;2023-03-01T10:07:13;15.23;;;9.77;;
12469;SDS011;36499;46.484;13.832;2023-03-01T10:09:53;14.90;;;10.40;;
12469;SDS011;36499;46.484;13.832;2023-03-01T10:12:23;21.80;;;14.43;;
12469;SDS011;36499;46.484;13.832;2023-03-01T10:14:58;15.57;;;10.77;;
12469;SDS011;36499;46.484;13.832;2023-03-01T10:17:33;16.37;;;11.00;;
12469;SDS011;36499;46.484;13.832;2023-03-01T10:20:18;21.03;;;14.13;;
12469;SDS011;36499;46.484;13.832;2023-03-01T10:22:49;15.87;;;9.40;;
12469;SDS011;36499;46.484;13.832;2023-03-01T10:25:36;15.67;;;10.17;;
12469;SDS011;36499;46.484;13.832;2023-03-01T10:28:26;17.33;;;10.73;;
12469;SDS011;36499;46.484;13.832;2023-03-01T10:31:01;13.10;;;9.30;;
12469;SDS011;36499;46.484;13.832;2023-03-01T10:33:30;15.83;;;10.00;;
12469;SDS011;36499;46.484;13.832;2023-03-01T10:36:04;17.43;;;10.23;;
12469;SDS011;36499;46.484;13.832;2023-03-01T10:38:47;14.63;;;9.73;;
12469;SDS011;36499;46.484;13.832;2023-03-01T10:41:17;14.43;;;10.27;;
12469;SDS011;36499;46.484;13.832;2023-03-01T10:43:47;13.83;;;9.57;;
12469;SDS011;36499;46.484;13.832;2023-03-01T10:46:23;13.40;;;9.33;;
12469;SDS011;36499;46.484;13.832;2023-03-01T10:49:05;13.73;;;10.27;;
12469;SDS011;36499;46.484;13.832;2023-03-01T10:51:39;15.30;;;10.10;;
12469;SDS011;36499;46.484;13.832;2023-03-01T10:54:15;12.43;;;9.30;;
12469;SDS011;36499;46.484;13.832;2023-03-01T10:56:46;12.77;;;9.40;;
12469;SDS011;36499;46.484;13.832;2023-03-01T10:59:21;13.43;;;9.27;;
12469;SDS011;36499;46.484;13.832;2023-03-01T11:02:04;11.50;;;8.70;;
12469;SDS011;36499;46.484;13.832;2023-03-01T11:04:56;13.70;;;9.27;;
12469;SDS011;36499;46.484;13.832;2023-03-01T11:07:25;12.03;;;8.87;;
12469;SDS011;36499;46.484;13.832;2023-03-01T11:09:53;12.17;;;9.20;;
12469;SDS011;36499;46.484;13.832;2023-03-01T11:12:20;13.90;;;8.87;;
12469;SDS011;36499;46.484;13.832;2023-03-01T11:14:50;15.27;;;9.63;;
12469;SDS011;36499;46.484;13.832;2023-03-01T11:17:21;16.10;;;10.33;;
12469;SDS011;36499;46.484;13.832;2023-03-01T11:20:00;19.90;;;13.67;;
12469;SDS011;36499;46.484;13.832;2023-03-01T11:22:44;15.57;;;10.07;;
12469;SDS011;36499;46.484;13.832;2023-03-01T11:25:17;11.50;;;8.57;;
12469;SDS011;36499;46.484;13.832;2023-03-01T11:27:50;13.90;;;9.80;;
12469;SDS011;36499;46.484;13.832;2023-03-01T11:30:22;14.23;;;8.87;;
12469;SDS011;36499;46.484;13.832;2023-03-01T11:33:01;12.40;;;9.50;;
12469;SDS011;36499;46.484;13.832;2023-03-01T11:35:41;17.73;;;8.90;;
12469;SDS011;36499;46.484;13.832;2023-03-01T11:38:16;14.07;;;9.90;;
12469;SDS011;36499;46.484;13.832;2023-03-01T11:40:50;14.07;;;9.23;;
12469;SDS011;36499;46.484;13.832;2023-03-01T11:43:28;13.00;;;9.23;;
12469;SDS011;36499;46.484;13.832;2023-03-01T11:46:28;17.80;;;9.43;;
12469;SDS011;36499;46.484;13.832;2023-03-01T11:49:23;12.30;;;8.63;;
12469;SDS011;36499;46.484;13.832;2023-03-01T11:52:28;14.33;;;9.97;;
12469;SDS011;36499;46.484;13.832;2023-03-01T11:55:17;13.47;;;9.13;;
12469;SDS011;36499;46.484;13.832;2023-03-01T11:58:05;11.90;;;8.00;;
12469;SDS011;36499;46.484;13.832;2023-03-01T12:01:08;14.70;;;9.33;;
12469;SDS011;36499;46.484;13.832;2023-03-01T12:07:20;13.17;;;9.07;;
12469;SDS011;36499;46.484;13.832;2023-03-01T12:10:01;14.30;;;9.30;;
12469;SDS011;36499;46.484;13.832;2023-03-01T12:12:49;11.70;;;9.23;;
12469;SDS011;36499;46.484;13.832;2023-03-01T12:15:51;15.57;;;9.50;;
12469;SDS011;36499;46.484;13.832;2023-03-01T12:18:51;14.70;;;9.90;;
12469;SDS011;36499;46.484;13.832;2023-03-01T12:21:51;17.23;;;9.40;;
12469;SDS011;36499;46.484;13.832;2023-03-01T12:24:47;14.03;;;9.20;;
12469;SDS011;36499;46.484;13.832;2023-03-01T12:27:47;13.87;;;10.20;;
12469;SDS011;36499;46.484;13.832;2023-03-01T12:30:44;22.57;;;9.97;;
12469;SDS011;36499;46.484;13.832;2023-03-01T12:34:01;12.27;;;8.93;;
12469;SDS011;36499;46.484;13.832;2023-03-01T12:36:52;17.67;;;10.37;;
12469;SDS011;36499;46.484;13.832;2023-03-01T12:39:44;14.60;;;9.70;;
12469;SDS011;36499;46.484;13.832;2023-03-01T12:42:30;17.37;;;10.03;;
12469;SDS011;36499;46.484;13.832;2023-03-01T12:45:28;18.63;;;9.67;;
12469;SDS011;36499;46.484;13.832;2023-03-01T12:48:31;16.57;;;10.37;;
12469;SDS011;36499;46.484;13.832;2023-03-01T12:51:10;20.90;;;10.93;;
12469;SDS011;36499;46.484;13.832;2023-03-01T12:53:42;15.57;;;10.17;;
12469;SDS011;36499;46.484;13.832;2023-03-01T12:56:15;17.90;;;10.83;;
12469;SDS011;36499;46.484;13.832;2023-03-01T12:58:51;19.07;;;11.10;;
12469;SDS011;36499;46.484;13.832;2023-03-01T13:01:33;15.83;;;9.87;;
12469;SDS011;36499;46.484;13.832;2023-03-01T13:04:17;14.50;;;10.00;;
12469;SDS011;36499;46.484;13.832;2023-03-01T13:07:13;14.60;;;9.73;;
12469;SDS011;36499;46.484;13.832;2023-03-01T13:09:54;14.07;;;9.97;;
12469;SDS011;36499;46.484;13.832;2023-03-01T13:12:51;16.67;;;9.77;;
12469;SDS011;36499;46.484;13.832;2023-03-01T13:15:29;16.60;;;9.67;;
12469;SDS011;36499;46.484;13.832;2023-03-01T13:17:59;16.40;;;9.53;;
12469;SDS011;36499;46.484;13.832;2023-03-01T13:20:31;15.60;;;10.10;;
12469;SDS011;36499;46.484;13.832;2023-03-01T13:23:13;18.43;;;10.30;;
12469;SDS011;36499;46.484;13.832;2023-03-01T13:26:00;13.33;;;9.30;;
12469;SDS011;36499;46.484;13.832;2023-03-01T13:28:39;18.80;;;11.00;;
12469;SDS011;36499;46.484;13.832;2023-03-01T13:34:45;27.20;;;16.13;;
12469;SDS011;36499;46.484;13.832;2023-03-01T13:37:35;20.50;;;12.70;;
12469;SDS011;36499;46.484;13.832;2023-03-01T13:43:31;30.07;;;17.10;;
12469;SDS011;36499;46.484;13.832;2023-03-01T13:46:02;28.03;;;14.30;;
12469;SDS011;36499;46.484;13.832;2023-03-01T13:48:37;36.00;;;19.43;;
12469;SDS011;36499;46.484;13.832;2023-03-01T13:51:07;36.13;;;19.47;;
12469;SDS011;36499;46.484;13.832;2023-03-01T13:53:39;25.63;;;13.63;;
12469;SDS011;36499;46.484;13.832;2023-03-01T13:56:12;17.20;;;10.37;;
12469;SDS011;36499;46.484;13.832;2023-03-01T13:58:46;27.30;;;17.13;;
12469;SDS011;36499;46.484;13.832;2023-03-01T14:01:26;19.27;;;13.40;;
12469;SDS011;36499;46.484;13.832;2023-03-01T14:03:56;18.27;;;13.17;;
12469;SDS011;36499;46.484;13.832;2023-03-01T14:06:24;23.40;;;15.80;;
12469;SDS011;36499;46.484;13.832;2023-03-01T14:09:00;20.70;;;12.67;;
12469;SDS011;36499;46.484;13.832;2023-03-01T14:11:38;18.40;;;10.80;;
12469;SDS011;36499;46.484;13.832;2023-03-01T14:14:40;21.33;;;14.17;;
12469;SDS011;36499;46.484;13.832;2023-03-01T14:20:14;25.70;;;13.87;;
12469;SDS011;36499;46.484;13.832;2023-03-01T14:22:46;18.27;;;12.17;;
12469;SDS011;36499;46.484;13.832;2023-03-01T14:25:20;23.40;;;10.17;;
12469;SDS011;36499;46.484;13.832;2023-03-01T14:27:54;16.70;;;10.27;;
12469;SDS011;36499;46.484;13.832;2023-03-01T14:30:30;17.40;;;11.30;;
12469;SDS011;36499;46.484;13.832;2023-03-01T14:33:03;22.17;;;12.13;;
12469;SDS011;36499;46.484;13.832;2023-03-01T14:35:34;22.03;;;12.57;;
12469;SDS011;36499;46.484;13.832;2023-03-01T14:38:02;19.87;;;12.20;;
12469;SDS011;36499;46.484;13.832;2023-03-01T14:40:30;22.17;;;12.13;;
12469;SDS011;36499;46.484;13.832;2023-03-01T14:43:11;23.67;;;11.90;;
12469;SDS011;36499;46.484;13.832;2023-03-01T14:45:48;25.80;;;14.67;;
12469;SDS011;36499;46.484;13.832;2023-03-01T14:48:17;34.13;;;15.03;;
12469;SDS011;36499;46.484;13.832;2023-03-01T14:50:45;22.70;;;12.10;;
12469;SDS011;36499;46.484;13.832;2023-03-01T14:53:15;16.67;;;10.97;;
12469;SDS011;36499;46.484;13.832;2023-03-01T14:55:45;22.10;;;11.43;;
12469;SDS011;36499;46.484;13.832;2023-03-01T14:58:21;17.13;;;10.43;;
12469;SDS011;36499;46.484;13.832;2023-03-01T15:00:50;14.30;;;10.00;;
12469;SDS011;36499;46.484;13.832;2023-03-01T15:03:23;18.77;;;9.50;;
12469;SDS011;36499;46.484;13.832;2023-03-01T15:05:57;17.87;;;10.27;;
12469;SDS011;36499;46.484;13.832;2023-03-01T15:08:27;14.40;;;9.10;;